• Join FlightAware (Why Join?)
  • Login
  • US Flag 
01:19AM EST


 

Airport Tracker/Info


-or-


 

Live Flight TrackerFlight Track Log ✈ EJA829P ✈ 20-Mar-2014 ✈ KGSP - KMCO

Flight Track Log - Related Links

Times and Time Zones

All times are in EDT time to prevent confusion due to time zone crossing. See the EJA829P flight status page for this flight to view local times or setup timezone preferences in your user account.

Time Position Orientation Groundspeed Altitude Reporting Facility
EDT Latitude Longitude Course Direction KTS MPH feet Rate Location/Type
05:58PM 34.8669 -82.1478 175° South 219 252 8,800  Level Atlanta Center
05:59PM 34.8003 -82.1442 177° South 213 245 13,000 3,600 Climbing Atlanta Center
06:00PM 34.7208 -82.1333 174° South 241 277 16,000 2,580 Climbing Atlanta Center
06:01PM 34.6203 -82.1206 174° South 302 348 18,200 2,400 Climbing Atlanta Center
06:02PM 34.3554 -82.1377 175° South  Level Estimated
06:02PM 34.5156 -82.0950 169° South 364 419 20,800  Level Atlanta Center
06:03PM 34.4047 -82.0750 172° South 392 451 23,400 2,640 Climbing Atlanta Center
06:04PM 34.2978 -82.0547 171° South 392 451 26,100 2,100 Climbing Atlanta Center
06:05PM 34.1869 -82.0297 169° South 397 457 27,600 1,500 Climbing Atlanta Center
06:06PM 34.0739 -82.0075 171° South 407 468 29,100 1,500 Climbing Atlanta Center
06:07PM 33.9586 -81.9850 171° South 414 476 30,700 1,500 Climbing Atlanta Center
06:08PM 33.8456 -81.9603 170° South 414 476 32,200 1,500 Climbing Atlanta Center
06:09PM 33.7325 -81.9406 172° South 414 476 33,700 1,500 Climbing Atlanta Center
06:10PM 33.6214 -81.9183 171° South 409 471 35,200 1,500 Climbing Atlanta Center
06:11PM 33.5125 -81.8986 171° South 409 471 36,700 1,380 Climbing Atlanta Center
06:12PM 33.4078 -81.8789 171° South 403 464 38,000 600 Climbing Atlanta Center
06:13PM 33.2989 -81.8567 170° South 398 458 38,000  Level Atlanta Center
06:14PM 33.1858 -81.8372 172° South 398 458 38,000  Level Atlanta Center
06:15PM 33.0706 -81.8128 170° South 409 471 38,000  Level Atlanta Center
06:16PM 32.9533 -81.7911 171° South 414 476 38,000  Level Atlanta Center
06:17PM 32.8922 -81.7769 169° South 417 480 38,000  Level Jacksonville Center
06:18PM 32.7814 -81.7583 172° South 405 466 38,000  Level Jacksonville Center
06:19PM 32.6789 -81.7350 169° South 395 455 38,000  Level Jacksonville Center
06:20PM 32.5575 -81.6847 161° South 409 471 38,000  Level Jacksonville Center
06:21PM 32.4547 -81.6419 161° South 429 494 38,100  Climbing Jacksonville Center
06:22PM 32.3289 -81.5894 161° South 434 499 38,000 -60 Descending Jacksonville Center
06:23PM 32.2136 -81.5419 161° South 434 499 38,000  Level Jacksonville Center
06:24PM 32.0961 -81.4972 162° South 440 506 38,000  Level Jacksonville Center
06:25PM 31.9831 -81.4475 160° South 440 506 38,000  Level Jacksonville Center
06:26PM 31.8822 -81.4025 159° South 440 506 38,000  Level Jacksonville Center
06:27PM 31.7522 -81.3508 161° South 445 512 38,000  Level Jacksonville Center
06:28PM 31.6408 -81.3039 160° South 444 511 38,000  Level Jacksonville Center
06:29PM 31.5214 -81.2547 161° South 449 517 38,000  Level Jacksonville Center
06:30PM 31.4078 -81.2058 160° South 449 517 38,000  Level Jacksonville Center
06:31PM 31.3008 -81.1711 164° South 449 517 38,000  Level Jacksonville Center
06:32PM 31.1903 -81.1708 180° South 425 489 38,000  Level Jacksonville Center
06:33PM 31.0817 -81.1678 179° South 413 475 38,000  Level Jacksonville Center
06:34PM 30.9689 -81.1650 179° South 406 467 38,000  Level Jacksonville Center
06:35PM 30.8581 -81.1622 179° South 401 461 38,000 -900 Level Jacksonville Center
06:36PM 30.7475 -81.1547 177° South 401 461 36,300 -1,860 Descending Jacksonville Center
06:37PM 30.6431 -81.1542 180° South 401 461 34,300 -1,200 Descending Jacksonville Center
06:38PM 30.5344 -81.1489 178° South 395 455 34,000 -180 Descending Jacksonville Center
06:39PM 30.4278 -81.1483 180° South 390 449 34,000  Level Jacksonville Center
06:40PM 30.3214 -81.1456 179° South 384 442 34,000  Level Jacksonville Center
06:41PM 30.2128 -81.1428 179° South 384 442 34,000  Level Jacksonville Center
06:42PM 30.1042 -81.1375 178° South 384 442 34,000  Level Jacksonville Center
06:43PM 29.9933 -81.1347 179° South 384 442 34,000 -600 Level Jacksonville Center
06:44PM 29.8869 -81.1319 179° South 384 442 32,800 -1,800 Descending Jacksonville Center
06:45PM 29.7803 -81.1267 178° South 384 442 30,400 -2,400 Descending Jacksonville Center
06:46PM 29.6719 -81.1286 181° South 384 442 28,000 -2,400 Descending Jacksonville Center
06:47PM 29.5717 -81.1233 177° South 379 436 25,600 -2,640 Descending Jacksonville Center
06:48PM 29.4650 -81.1156 176° South 358 412 22,800 -2,640 Descending Jacksonville Center
06:49PM 29.3669 -81.1172 181° South 349 402 20,400 -2,400 Descending Jacksonville Center
06:50PM 29.2708 -81.1119 177° South 344 396 18,000 -2,400 Descending Jacksonville Center
06:51PM 29.1767 -81.1042 176° South 349 402 15,700 -2,400 Descending Jacksonville Center
06:52PM 29.0847 -81.0964 176° South 330 380 13,300 -1,860 Descending Jacksonville Center
06:53PM 29.0011 -81.0883 175° South 311 358 12,000 -1,500 Descending Jacksonville Center
06:54PM 28.9197 -81.0733 171° South 306 352 10,300 -1,800 Descending Jacksonville Center
06:55PM 28.8400 -81.0603 172° South 301 346 8,500 -1,800 Descending Jacksonville Center
06:56PM 28.7672 -81.0711 187° South 269 310 6,700 -1,260 Descending Jacksonville Center
06:57PM 28.7453 -81.1403 250° West 218 251 6,000 -900 Descending Jacksonville Center
06:58PM 28.7169 -81.2094 245° Southwest 218 251 5,000 -1,500 Descending Jacksonville Center
06:59PM 28.6694 -81.2506 217° Southwest 218 251 3,100 -1,500 Descending Jacksonville Center
06:59PM 28.6500 -81.2667 216° Southwest 218 251 2,800 -360 Descending Orlando TRACON
07:00PM 28.6000 -81.3000 210° Southwest 200 230 2,600 -180 Descending Orlando TRACON
07:01PM 28.5500 -81.3167 196° South 194 223 2,500 -540 Descending Orlando TRACON
07:02PM 28.5000 -81.3167 180° South 162 186 1,600 -960 Descending Orlando TRACON
07:03PM 28.4667 -81.3167 180° South 114 131 600 -1,020 Descending Orlando TRACON
07:05PM 28.4294 -81.3090 180° South  Level Estimated
07:12PM 28.4294 -81.3090 336° Northwest  Level Estimated
07:13PM 28.4294 -81.3090 336° Northwest  Level Estimated
07:14PM 28.4294 -81.3090 336° Northwest  Level Estimated
07:15PM 28.4294 -81.3090 336° Northwest  Level Estimated